Time;durP1;ratioP1;P1;durP2;ratioP2;P2;SDS_P1;SDS_P2;PMS_P1;PMS_P2;Temp;Humidity;BMP_temperature;BMP_pressure;BME280_temperature;BME280_humidity;BME280_pressure;Samples;Min_cycle;Max_cycle;Signal;HPM_P1;HPM_P2
2021/08/16 00:01:55;;;;;;;;;;;;;;;;;;4964748;28;20017;-75
2021/08/16 00:04:20;;;;;;;;;;;;;;;;;;4970363;28;20231;-75
2021/08/16 00:06:46;;;;;;;;;;;;;;;;;;4947994;28;19918;-75
2021/08/16 00:09:11;;;;;;;;;;;;;;;;;;4973889;28;19920;-75
2021/08/16 00:11:36;;;;;;;;;;;;;;;;;;4929791;28;20267;-75
2021/08/16 00:14:01;;;;;;;;;;;;;;;;;;4963635;28;20008;-75
2021/08/16 00:16:27;;;;;;;;;;;;;;;;;;4970343;28;19910;-75
2021/08/16 00:18:52;;;;;;;;;;;;;;;;;;4963907;28;20021;-75
2021/08/16 00:21:17;;;;;;;;;;;;;;;;;;4967676;28;20080;-75
2021/08/16 00:23:42;;;;;;;;;;;;;;;;;;4965676;28;19919;-75
2021/08/16 00:26:08;;;;;;;;;;;;;;;;;;4964795;28;19925;-75
2021/08/16 00:28:33;;;;;;;;;;;;;;;;;;4956589;28;19917;-75
2021/08/16 00:30:58;;;;;;;;;;;;;;;;;;4947490;28;20352;-76
2021/08/16 00:33:23;;;;;;;;;;;;;;;;;;4951155;28;20256;-75
2021/08/16 00:35:48;;;;;;;;;;;;;;;;;;4962560;28;20367;-75
2021/08/16 00:38:14;;;;;;;;;;;;;;;;;;4963343;28;20049;-75
2021/08/16 00:40:39;;;;;;;;;;;;;;;;;;4954070;28;19920;-75
2021/08/16 00:43:04;;;;;;;;;;;;;;;;;;4946023;28;19914;-75
2021/08/16 00:45:29;;;;;;;;;;;;;;;;;;4971736;28;19916;-75
2021/08/16 00:47:55;;;;;;;;;;;;;;;;;;4963575;28;19914;-75
2021/08/16 00:50:20;;;;;;;;;;;;;;;;;;4963432;28;19910;-75
2021/08/16 00:52:45;;;;;;;;;;;;;;;;;;4970657;28;19925;-75
2021/08/16 00:55:10;;;;;;;;;;;;;;;;;;4944968;28;19921;-75
2021/08/16 00:57:35;;;;;;;;;;;;;;;;;;4952405;28;19936;-75
2021/08/16 01:00:02;;;;;;;;;;;;;;;;;;4963166;28;19921;-75
2021/08/16 01:02:27;;;;;;;;;;;;;;;;;;4965770;28;19925;-75
2021/08/16 01:04:52;;;;;;;;;;;;;;;;;;4971808;28;19981;-75
2021/08/16 01:07:17;;;;;;;;;;;;;;;;;;4965581;28;19913;-75
2021/08/16 01:09:42;;;;;;;;;;;;;;;;;;4954329;28;19917;-75
2021/08/16 01:12:08;;;;;;;;;;;;;;;;;;4962343;28;19940;-75
2021/08/16 01:14:33;;;;;;;;;;;;;;;;;;4945604;28;19937;-75
2021/08/16 01:16:58;;;;;;;;;;;;;;;;;;4970591;28;20179;-75
2021/08/16 01:19:23;;;;;;;;;;;;;;;;;;4965270;28;19918;-75
2021/08/16 01:21:48;;;;;;;;;;;;;;;;;;4969962;28;19913;-75
2021/08/16 01:24:14;;;;;;;;;;;;;;;;;;4964266;28;19914;-75
2021/08/16 01:26:39;;;;;;;;;;;;;;;;;;4969622;28;19989;-75
2021/08/16 01:29:04;;;;;;;;;;;;;;;;;;4973003;28;19941;-75
2021/08/16 01:31:29;;;;;;;;;;;;;;;;;;4953177;28;20009;-75
2021/08/16 01:33:54;;;;;;;;;;;;;;;;;;4954862;28;19918;-75
2021/08/16 01:36:20;;;;;;;;;;;;;;;;;;4949474;28;20005;-75
2021/08/16 01:38:45;;;;;;;;;;;;;;;;;;4949282;28;20008;-75
2021/08/16 01:41:10;;;;;;;;;;;;;;;;;;4954290;28;19914;-75
2021/08/16 01:43:35;;;;;;;;;;;;;;;;;;4967923;28;19914;-75
2021/08/16 01:46:03;;;;;;;;;;;;;;;;;;4974750;28;19925;-75
2021/08/16 01:48:28;;;;;;;;;;;;;;;;;;4950299;28;20286;-75
2021/08/16 01:50:54;;;;;;;;;;;;;;;;;;4971112;28;20495;-75
2021/08/16 01:53:19;;;;;;;;;;;;;;;;;;4974381;28;19943;-74
2021/08/16 01:55:44;;;;;;;;;;;;;;;;;;4965496;28;19944;-75
2021/08/16 01:58:09;;;;;;;;;;;;;;;;;;4959094;28;20004;-75
2021/08/16 02:00:35;;;;;;;;;;;;;;;;;;4966189;28;19914;-75
2021/08/16 02:03:03;;;;;;;;;;;;;;;;;;4951462;28;20104;-75
2021/08/16 02:05:28;;;;;;;;;;;;;;;;;;4972804;28;20272;-75
2021/08/16 02:07:53;;;;;;;;;;;;;;;;;;4967822;28;20397;-74
2021/08/16 02:10:18;;;;;;;;;;;;;;;;;;4973615;28;19985;-74
2021/08/16 02:12:44;;;;;;;;;;;;;;;;;;4963325;28;20003;-74
2021/08/16 02:15:09;;;;;;;;;;;;;;;;;;4969793;28;19958;-74
2021/08/16 02:17:34;;;;;;;;;;;;;;;;;;4973240;28;20013;-74
2021/08/16 02:20:02;;;;;;;;;;;;;;;;;;4963245;28;19917;-74
2021/08/16 02:22:27;;;;;;;;;;;;;;;;;;4975009;28;19914;-74
2021/08/16 02:24:52;;;;;;;;;;;;;;;;;;4965389;28;19918;-74
2021/08/16 02:27:17;;;;;;;;;;;;;;;;;;4968489;28;19914;-74
2021/08/16 02:29:43;;;;;;;;;;;;;;;;;;4971267;28;19914;-74
2021/08/16 02:32:08;;;;;;;;;;;;;;;;;;4967495;28;20323;-74
2021/08/16 02:34:33;;;;;;;;;;;;;;;;;;4954931;28;20338;-75
2021/08/16 02:36:58;;;;;;;;;;;;;;;;;;4965326;28;19913;-74
2021/08/16 02:39:23;;;;;;;;;;;;;;;;;;4965560;28;19941;-74
2021/08/16 02:41:49;;;;;;;;;;;;;;;;;;4970790;28;19914;-74
2021/08/16 02:44:14;;;;;;;;;;;;;;;;;;4950594;28;20102;-75
2021/08/16 02:46:39;;;;;;;;;;;;;;;;;;4954718;28;19949;-74
2021/08/16 02:49:04;;;;;;;;;;;;;;;;;;4948728;28;20504;-74
2021/08/16 02:51:29;;;;;;;;;;;;;;;;;;4947947;28;20264;-74
2021/08/16 02:53:55;;;;;;;;;;;;;;;;;;4939343;28;19932;-74
2021/08/16 02:56:20;;;;;;;;;;;;;;;;;;4964600;28;19914;-74
2021/08/16 02:58:45;;;;;;;;;;;;;;;;;;4971860;28;20388;-74
2021/08/16 03:01:10;;;;;;;;;;;;;;;;;;4948382;28;19913;-74
2021/08/16 03:03:35;;;;;;;;;;;;;;;;;;4949021;28;19921;-74
2021/08/16 03:06:01;;;;;;;;;;;;;;;;;;4977197;28;19914;-74
2021/08/16 03:08:26;;;;;;;;;;;;;;;;;;4967545;28;19957;-74
2021/08/16 03:10:51;;;;;;;;;;;;;;;;;;4950294;28;20041;-74
2021/08/16 03:13:16;;;;;;;;;;;;;;;;;;4950935;28;19925;-74
2021/08/16 03:15:42;;;;;;;;;;;;;;;;;;4949585;28;19984;-74
2021/08/16 03:18:07;;;;;;;;;;;;;;;;;;4974856;28;19918;-74
2021/08/16 03:20:32;;;;;;;;;;;;;;;;;;4965327;28;19921;-74
2021/08/16 03:22:57;;;;;;;;;;;;;;;;;;4969726;28;19918;-74
2021/08/16 03:25:23;;;;;;;;;;;;;;;;;;4966530;28;19914;-74
2021/08/16 03:27:48;;;;;;;;;;;;;;;;;;4967973;28;19918;-74
2021/08/16 03:30:13;;;;;;;;;;;;;;;;;;4954606;28;20020;-74
2021/08/16 03:32:38;;;;;;;;;;;;;;;;;;4967862;28;20024;-75
2021/08/16 03:35:04;;;;;;;;;;;;;;;;;;4960813;28;20942;-74
2021/08/16 03:37:32;;;;;;;;;;;;;;;;;;4965514;28;19914;-75
2021/08/16 03:39:57;;;;;;;;;;;;;;;;;;4964955;28;19929;-75
2021/08/16 03:42:23;;;;;;;;;;;;;;;;;;4970401;28;19914;-74
2021/08/16 03:44:48;;;;;;;;;;;;;;;;;;4962493;28;19914;-75
2021/08/16 03:47:13;;;;;;;;;;;;;;;;;;4974139;28;20275;-74
2021/08/16 03:49:38;;;;;;;;;;;;;;;;;;4965588;28;19937;-74
2021/08/16 03:52:03;;;;;;;;;;;;;;;;;;4967707;28;20484;-75
2021/08/16 03:54:31;;;;;;;;;;;;;;;;;;4969184;28;19922;-74
2021/08/16 03:56:56;;;;;;;;;;;;;;;;;;4949868;28;20442;-74
2021/08/16 03:59:22;;;;;;;;;;;;;;;;;;4955203;28;20287;-74
2021/08/16 04:01:47;;;;;;;;;;;;;;;;;;4947448;28;19921;-75
2021/08/16 04:04:12;;;;;;;;;;;;;;;;;;4962432;28;19914;-75
2021/08/16 04:06:37;;;;;;;;;;;;;;;;;;4954854;28;19914;-75
2021/08/16 04:09:02;;;;;;;;;;;;;;;;;;4966026;28;20271;-75
2021/08/16 04:11:28;;;;;;;;;;;;;;;;;;4950449;28;20008;-74
2021/08/16 04:13:53;;;;;;;;;;;;;;;;;;4945988;28;20360;-75
2021/08/16 04:16:18;;;;;;;;;;;;;;;;;;4947900;28;20044;-75
2021/08/16 04:18:43;;;;;;;;;;;;;;;;;;4960833;28;19914;-75
2021/08/16 04:21:08;;;;;;;;;;;;;;;;;;4964295;28;19977;-74
2021/08/16 04:23:34;;;;;;;;;;;;;;;;;;4971069;28;19913;-74
2021/08/16 04:25:59;;;;;;;;;;;;;;;;;;4964566;28;19914;-75
2021/08/16 04:28:24;;;;;;;;;;;;;;;;;;4949904;28;20410;-75
2021/08/16 04:30:49;;;;;;;;;;;;;;;;;;4969208;28;20017;-75
2021/08/16 04:33:15;;;;;;;;;;;;;;;;;;4964512;28;20315;-74
2021/08/16 04:35:40;;;;;;;;;;;;;;;;;;4951763;28;20291;-75
2021/08/16 04:38:05;;;;;;;;;;;;;;;;;;4963408;28;19920;-75
2021/08/16 04:40:30;;;;;;;;;;;;;;;;;;4950478;28;20429;-74
2021/08/16 04:42:56;;;;;;;;;;;;;;;;;;4972815;28;19961;-74
2021/08/16 04:45:21;;;;;;;;;;;;;;;;;;4961188;28;21174;-75
2021/08/16 04:47:46;;;;;;;;;;;;;;;;;;4942430;28;20001;-74
2021/08/16 04:50:11;;;;;;;;;;;;;;;;;;4964533;28;19968;-75
2021/08/16 04:52:37;;;;;;;;;;;;;;;;;;4936938;28;19925;-75
2021/08/16 04:55:02;;;;;;;;;;;;;;;;;;4949734;28;20053;-75
2021/08/16 04:57:27;;;;;;;;;;;;;;;;;;4964597;28;19925;-75
2021/08/16 04:59:52;;;;;;;;;;;;;;;;;;4968275;28;19917;-75
2021/08/16 05:02:18;;;;;;;;;;;;;;;;;;4963107;28;19920;-75
2021/08/16 05:04:43;;;;;;;;;;;;;;;;;;4944783;28;20610;-75
2021/08/16 05:07:08;;;;;;;;;;;;;;;;;;4963887;28;20449;-75
2021/08/16 05:09:35;;;;;;;;;;;;;;;;;;4945745;28;20793;-75
2021/08/16 05:12:00;;;;;;;;;;;;;;;;;;4926629;28;19917;-75
2021/08/16 05:14:25;;;;;;;;;;;;;;;;;;4960209;28;19941;-75
2021/08/16 05:16:50;;;;;;;;;;;;;;;;;;4962011;28;19992;-75
2021/08/16 05:19:16;;;;;;;;;;;;;;;;;;4950713;28;19918;-75
2021/08/16 05:21:41;;;;;;;;;;;;;;;;;;4946894;28;20423;-75
2021/08/16 05:24:06;;;;;;;;;;;;;;;;;;4972370;28;20312;-75
2021/08/16 05:26:31;;;;;;;;;;;;;;;;;;4941157;28;19928;-75
2021/08/16 05:28:59;;;;;;;;;;;;;;;;;;4960945;28;19914;-75
2021/08/16 05:31:24;;;;;;;;;;;;;;;;;;4955727;28;19953;-75
2021/08/16 05:33:49;;;;;;;;;;;;;;;;;;4956174;28;20004;-74
2021/08/16 05:36:14;;;;;;;;;;;;;;;;;;4967082;28;19953;-73
2021/08/16 05:38:40;;;;;;;;;;;;;;;;;;4959994;28;19996;-74
2021/08/16 05:41:05;;;;;;;;;;;;;;;;;;4960026;28;19914;-74
2021/08/16 05:43:30;;;;;;;;;;;;;;;;;;4950878;28;20349;-74
2021/08/16 05:45:55;;;;;;;;;;;;;;;;;;4970092;28;20341;-73
2021/08/16 05:48:22;;;;;;;;;;;;;;;;;;4962907;28;19944;-74
2021/08/16 05:50:47;;;;;;;;;;;;;;;;;;4950621;28;20004;-74
2021/08/16 05:53:12;;;;;;;;;;;;;;;;;;4973700;28;20391;-74
2021/08/16 05:55:37;;;;;;;;;;;;;;;;;;4955834;28;20286;-74
2021/08/16 05:58:03;;;;;;;;;;;;;;;;;;4968286;28;20041;-74
2021/08/16 06:00:28;;;;;;;;;;;;;;;;;;4970075;28;19914;-74
2021/08/16 06:02:53;;;;;;;;;;;;;;;;;;4953562;28;20075;-74
2021/08/16 06:05:18;;;;;;;;;;;;;;;;;;4969912;28;19965;-74
2021/08/16 06:07:44;;;;;;;;;;;;;;;;;;4953806;28;19914;-73
2021/08/16 06:10:09;;;;;;;;;;;;;;;;;;4970802;28;20370;-74
2021/08/16 06:12:34;;;;;;;;;;;;;;;;;;4975737;28;20196;-74
2021/08/16 06:14:59;;;;;;;;;;;;;;;;;;4970445;28;19921;-74
2021/08/16 06:17:25;;;;;;;;;;;;;;;;;;4975744;28;19913;-74
2021/08/16 06:19:50;;;;;;;;;;;;;;;;;;4970998;28;19917;-75
2021/08/16 06:22:18;;;;;;;;;;;;;;;;;;4972349;28;20001;-74
2021/08/16 06:24:43;;;;;;;;;;;;;;;;;;4973251;28;19913;-74
2021/08/16 06:27:08;;;;;;;;;;;;;;;;;;4973074;28;19961;-74
2021/08/16 06:29:34;;;;;;;;;;;;;;;;;;4974037;28;19914;-73
2021/08/16 06:31:59;;;;;;;;;;;;;;;;;;4970950;28;19957;-73
2021/08/16 06:34:24;;;;;;;;;;;;;;;;;;4972175;28;20386;-73
2021/08/16 06:36:56;;;;;;;;;;;;;;;;;;4963773;28;20271;-74
2021/08/16 06:39:21;;;;;;;;;;;;;;;;;;4970965;28;20447;-74
2021/08/16 06:41:47;;;;;;;;;;;;;;;;;;4972596;28;20009;-72
2021/08/16 06:44:12;;;;;;;;;;;;;;;;;;4971153;28;20351;-72
2021/08/16 06:46:37;;;;;;;;;;;;;;;;;;4971675;28;20851;-74
2021/08/16 06:49:02;;;;;;;;;;;;;;;;;;4951138;28;19918;-74
2021/08/16 06:51:27;;;;;;;;;;;;;;;;;;4953196;28;19941;-70
2021/08/16 06:53:53;;;;;;;;;;;;;;;;;;4965461;28;19914;-70
2021/08/16 06:56:18;;;;;;;;;;;;;;;;;;4967693;28;20258;-72
2021/08/16 06:58:43;;;;;;;;;;;;;;;;;;4973163;28;19910;-70
2021/08/16 07:01:08;;;;;;;;;;;;;;;;;;4969918;28;19917;-69
2021/08/16 07:03:34;;;;;;;;;;;;;;;;;;4956450;28;20286;-70
2021/08/16 07:05:59;;;;;;;;;;;;;;;;;;4952388;28;20291;-71
2021/08/16 07:08:27;;;;;;;;;;;;;;;;;;4970763;28;19914;-70
2021/08/16 07:10:52;;;;;;;;;;;;;;;;;;4970269;28;20604;-71
2021/08/16 07:13:17;;;;;;;;;;;;;;;;;;4965897;28;19918;-70
2021/08/16 07:15:42;;;;;;;;;;;;;;;;;;4966534;28;19922;-70
2021/08/16 07:18:07;;;;;;;;;;;;;;;;;;4967449;28;19925;-72
2021/08/16 07:20:33;;;;;;;;;;;;;;;;;;4971145;28;20004;-72
2021/08/16 07:22:58;;;;;;;;;;;;;;;;;;4968609;28;19913;-70
2021/08/16 07:25:23;;;;;;;;;;;;;;;;;;4963599;28;19918;-70
2021/08/16 07:27:48;;;;;;;;;;;;;;;;;;4969265;28;20387;-70
2021/08/16 07:30:14;;;;;;;;;;;;;;;;;;4969085;28;19928;-71
2021/08/16 07:32:39;;;;;;;;;;;;;;;;;;4952313;28;20028;-70
2021/08/16 07:35:04;;;;;;;;;;;;;;;;;;4968597;28;20004;-72
2021/08/16 07:37:29;;;;;;;;;;;;;;;;;;4953801;28;20038;-71
2021/08/16 07:39:54;;;;;;;;;;;;;;;;;;4952119;28;19921;-71
2021/08/16 07:42:23;;;;;;;;;;;;;;;;;;4968161;28;19914;-70
2021/08/16 07:44:48;;;;;;;;;;;;;;;;;;4952097;28;19922;-71
2021/08/16 07:47:14;;;;;;;;;;;;;;;;;;4967778;28;19920;-71
2021/08/16 07:49:39;;;;;;;;;;;;;;;;;;4951108;28;19909;-70
2021/08/16 07:52:04;;;;;;;;;;;;;;;;;;4971819;28;19913;-71
2021/08/16 07:54:29;;;;;;;;;;;;;;;;;;4971901;28;19996;-71
2021/08/16 07:56:55;;;;;;;;;;;;;;;;;;4950971;28;19936;-70
2021/08/16 07:59:20;;;;;;;;;;;;;;;;;;4971448;28;19922;-70
2021/08/16 08:01:45;;;;;;;;;;;;;;;;;;4953279;28;19914;-70
2021/08/16 08:04:10;;;;;;;;;;;;;;;;;;4968593;28;19984;-70
2021/08/16 08:06:36;;;;;;;;;;;;;;;;;;4967670;28;20021;-72
2021/08/16 08:09:01;;;;;;;;;;;;;;;;;;4971685;28;19913;-70
2021/08/16 08:11:26;;;;;;;;;;;;;;;;;;4973303;28;19921;-70
2021/08/16 08:13:52;;;;;;;;;;;;;;;;;;4971270;28;19914;-70
2021/08/16 08:16:17;;;;;;;;;;;;;;;;;;4970787;28;20300;-72
2021/08/16 08:18:45;;;;;;;;;;;;;;;;;;4968018;28;19914;-71
2021/08/16 08:21:10;;;;;;;;;;;;;;;;;;4972128;28;19918;-70
2021/08/16 08:23:35;;;;;;;;;;;;;;;;;;4970811;28;19936;-70
2021/08/16 08:26:00;;;;;;;;;;;;;;;;;;4965867;28;20500;-71
2021/08/16 08:28:26;;;;;;;;;;;;;;;;;;4969807;28;20036;-72
2021/08/16 08:30:51;;;;;;;;;;;;;;;;;;4935627;28;19914;-71
2021/08/16 08:33:17;;;;;;;;;;;;;;;;;;4966024;28;19917;-71
2021/08/16 08:35:42;;;;;;;;;;;;;;;;;;4966819;28;19922;-70
2021/08/16 08:38:08;;;;;;;;;;;;;;;;;;4975124;28;19925;-69
2021/08/16 08:40:33;;;;;;;;;;;;;;;;;;4957015;28;19914;-70
2021/08/16 08:42:58;;;;;;;;;;;;;;;;;;4955387;28;20373;-70
2021/08/16 08:45:24;;;;;;;;;;;;;;;;;;4967597;28;20318;-69
2021/08/16 08:47:49;;;;;;;;;;;;;;;;;;4968451;28;20264;-70
2021/08/16 08:50:15;;;;;;;;;;;;;;;;;;4968624;28;20496;-72
2021/08/16 08:52:40;;;;;;;;;;;;;;;;;;4966821;28;19918;-70
2021/08/16 08:55:05;;;;;;;;;;;;;;;;;;4967851;28;19921;-70
2021/08/16 08:57:31;;;;;;;;;;;;;;;;;;4968416;28;19936;-70
2021/08/16 08:59:56;;;;;;;;;;;;;;;;;;4971297;28;19920;-71
2021/08/16 09:02:22;;;;;;;;;;;;;;;;;;4966153;28;19909;-70
2021/08/16 09:04:47;;;;;;;;;;;;;;;;;;4967761;28;20281;-71
2021/08/16 09:07:14;;;;;;;;;;;;;;;;;;4970163;28;19913;-70
2021/08/16 09:09:39;;;;;;;;;;;;;;;;;;4967991;28;19918;-70
2021/08/16 09:12:05;;;;;;;;;;;;;;;;;;4969290;28;19916;-71
2021/08/16 09:14:30;;;;;;;;;;;;;;;;;;4967518;28;19921;-71
2021/08/16 09:16:55;;;;;;;;;;;;;;;;;;4967178;28;19949;-73
2021/08/16 09:19:20;;;;;;;;;;;;;;;;;;4969299;28;19984;-71
2021/08/16 09:21:52;;;;;;;;;;;;;;;;;;4967959;28;19992;-71
2021/08/16 09:24:18;;;;;;;;;;;;;;;;;;4970451;28;19944;-72
2021/08/16 09:26:43;;;;;;;;;;;;;;;;;;4969005;28;20049;-70
2021/08/16 09:29:08;;;;;;;;;;;;;;;;;;4972632;28;20521;-72
2021/08/16 09:31:34;;;;;;;;;;;;;;;;;;4970564;28;19913;-73
2021/08/16 09:34:02;;;;;;;;;;;;;;;;;;4970885;28;19975;-72
2021/08/16 09:36:27;;;;;;;;;;;;;;;;;;4964625;28;20576;-70
2021/08/16 09:38:53;;;;;;;;;;;;;;;;;;4966784;28;19914;-72
2021/08/16 09:41:18;;;;;;;;;;;;;;;;;;4949911;28;19993;-72
2021/08/16 09:43:43;;;;;;;;;;;;;;;;;;4968356;28;19956;-72
2021/08/16 09:46:08;;;;;;;;;;;;;;;;;;4968578;28;20006;-70
2021/08/16 09:48:33;;;;;;;;;;;;;;;;;;4973452;28;19914;-71
2021/08/16 09:50:59;;;;;;;;;;;;;;;;;;4971443;28;19914;-71
2021/08/16 09:53:24;;;;;;;;;;;;;;;;;;4969986;28;19920;-72
2021/08/16 09:55:50;;;;;;;;;;;;;;;;;;4969494;28;20377;-71
2021/08/16 09:58:15;;;;;;;;;;;;;;;;;;4956110;28;20371;-73
2021/08/16 10:00:40;;;;;;;;;;;;;;;;;;4948485;28;20291;-72
2021/08/16 10:03:07;;;;;;;;;;;;;;;;;;4967499;28;19918;-70
2021/08/16 10:05:32;;;;;;;;;;;;;;;;;;4957722;28;20036;-71
2021/08/16 10:07:57;;;;;;;;;;;;;;;;;;4970435;28;19920;-72
2021/08/16 10:10:22;;;;;;;;;;;;;;;;;;4971253;28;19937;-72
2021/08/16 10:12:48;;;;;;;;;;;;;;;;;;4969692;28;20374;-73
2021/08/16 10:15:13;;;;;;;;;;;;;;;;;;4970572;28;20438;-72
2021/08/16 10:17:38;;;;;;;;;;;;;;;;;;4966251;28;19940;-70
2021/08/16 10:20:03;;;;;;;;;;;;;;;;;;4969261;28;19945;-71
2021/08/16 10:22:29;;;;;;;;;;;;;;;;;;4952421;28;20295;-71
2021/08/16 10:24:54;;;;;;;;;;;;;;;;;;4968750;28;20371;-70
2021/08/16 10:27:19;;;;;;;;;;;;;;;;;;4971568;28;20009;-73
2021/08/16 10:29:44;;;;;;;;;;;;;;;;;;4972755;28;20878;-71
2021/08/16 10:32:10;;;;;;;;;;;;;;;;;;4968845;28;20389;-71
2021/08/16 10:34:35;;;;;;;;;;;;;;;;;;4969280;28;20281;-72
2021/08/16 10:37:00;;;;;;;;;;;;;;;;;;4969373;28;19981;-72
2021/08/16 10:39:25;;;;;;;;;;;;;;;;;;4951763;28;19949;-71
2021/08/16 10:41:51;;;;;;;;;;;;;;;;;;4948520;28;20418;-70
2021/08/16 10:44:16;;;;;;;;;;;;;;;;;;4969827;28;20160;-71
2021/08/16 10:46:41;;;;;;;;;;;;;;;;;;4971034;28;19925;-72
2021/08/16 10:49:14;;;;;;;;;;;;;;;;;;4973235;28;19915;-72
2021/08/16 10:51:41;;;;;;;;;;;;;;;;;;4970114;28;19967;-71
2021/08/16 10:54:07;;;;;;;;;;;;;;;;;;4970441;28;20016;-74
2021/08/16 10:56:32;;;;;;;;;;;;;;;;;;4969887;28;19914;-70
2021/08/16 10:58:59;;;;;;;;;;;;;;;;;;4968398;28;20123;-72
2021/08/16 11:01:24;;;;;;;;;;;;;;;;;;4971935;28;19988;-72
2021/08/16 11:03:52;;;;;;;;;;;;;;;;;;4951797;28;20070;-72
2021/08/16 11:06:17;;;;;;;;;;;;;;;;;;4951782;28;19914;-71
2021/08/16 11:08:42;;;;;;;;;;;;;;;;;;4968366;28;19917;-72
2021/08/16 11:11:10;;;;;;;;;;;;;;;;;;4969481;28;19914;-70
2021/08/16 11:13:35;;;;;;;;;;;;;;;;;;4950227;28;19914;-71
2021/08/16 11:16:00;;;;;;;;;;;;;;;;;;4942773;28;20333;-71
2021/08/16 11:18:26;;;;;;;;;;;;;;;;;;4967425;28;20357;-70
2021/08/16 11:20:51;;;;;;;;;;;;;;;;;;4971799;28;20267;-71
2021/08/16 11:23:16;;;;;;;;;;;;;;;;;;4970483;28;19921;-71
2021/08/16 11:25:42;;;;;;;;;;;;;;;;;;4950691;28;20439;-71
2021/08/16 11:28:07;;;;;;;;;;;;;;;;;;4968411;28;20350;-70
2021/08/16 11:30:32;;;;;;;;;;;;;;;;;;4967838;28;20436;-71
2021/08/16 11:32:57;;;;;;;;;;;;;;;;;;4954919;28;19997;-71
2021/08/16 11:35:23;;;;;;;;;;;;;;;;;;4966309;28;19926;-69
2021/08/16 11:37:51;;;;;;;;;;;;;;;;;;4954172;28;19921;-71
2021/08/16 11:40:16;;;;;;;;;;;;;;;;;;4971336;28;19921;-70
2021/08/16 11:42:41;;;;;;;;;;;;;;;;;;4951959;28;19914;-72
2021/08/16 11:45:08;;;;;;;;;;;;;;;;;;4969701;28;19917;-71
2021/08/16 11:47:33;;;;;;;;;;;;;;;;;;4970952;28;19925;-72
2021/08/16 11:49:59;;;;;;;;;;;;;;;;;;4967081;28;19941;-71
2021/08/16 11:52:24;;;;;;;;;;;;;;;;;;4956622;28;19913;-70
2021/08/16 11:54:49;;;;;;;;;;;;;;;;;;4970664;28;20016;-72
2021/08/16 11:57:15;;;;;;;;;;;;;;;;;;4971296;28;19918;-70
2021/08/16 11:59:40;;;;;;;;;;;;;;;;;;4969294;28;20004;-70
2021/08/16 12:02:05;;;;;;;;;;;;;;;;;;4949522;28;20048;-71
2021/08/16 12:04:33;;;;;;;;;;;;;;;;;;4966267;28;19988;-70
2021/08/16 12:06:58;;;;;;;;;;;;;;;;;;4971848;28;19917;-69
2021/08/16 12:09:23;;;;;;;;;;;;;;;;;;4969178;28;20012;-70
2021/08/16 12:11:48;;;;;;;;;;;;;;;;;;4967998;28;19918;-70
2021/08/16 12:14:14;;;;;;;;;;;;;;;;;;4969682;28;19926;-72
2021/08/16 12:16:40;;;;;;;;;;;;;;;;;;4966625;28;19953;-72
2021/08/16 12:19:05;;;;;;;;;;;;;;;;;;4967370;28;19914;-70
2021/08/16 12:21:30;;;;;;;;;;;;;;;;;;4967825;28;19910;-72
2021/08/16 12:23:55;;;;;;;;;;;;;;;;;;4953366;28;19967;-71
2021/08/16 12:26:21;;;;;;;;;;;;;;;;;;4968168;28;19914;-71
2021/08/16 12:28:46;;;;;;;;;;;;;;;;;;4969694;28;19914;-69
2021/08/16 12:31:11;;;;;;;;;;;;;;;;;;4971584;28;19939;-72
2021/08/16 12:33:37;;;;;;;;;;;;;;;;;;4970506;28;19920;-71
2021/08/16 12:36:02;;;;;;;;;;;;;;;;;;4970209;28;19918;-70
2021/08/16 12:38:27;;;;;;;;;;;;;;;;;;4965947;28;19968;-71
2021/08/16 12:40:52;;;;;;;;;;;;;;;;;;4969772;28;19921;-70
2021/08/16 12:43:18;;;;;;;;;;;;;;;;;;4968947;28;19965;-71
2021/08/16 12:45:43;;;;;;;;;;;;;;;;;;4952175;28;19914;-69
2021/08/16 12:48:08;;;;;;;;;;;;;;;;;;4970908;28;19918;-71
2021/08/16 12:50:33;;;;;;;;;;;;;;;;;;4969329;28;19968;-72
2021/08/16 12:52:58;;;;;;;;;;;;;;;;;;4948549;28;19933;-72
2021/08/16 12:55:24;;;;;;;;;;;;;;;;;;4967549;28;19925;-71
2021/08/16 12:57:49;;;;;;;;;;;;;;;;;;4966742;28;20066;-70
2021/08/16 13:00:14;;;;;;;;;;;;;;;;;;4966570;28;19914;-71
2021/08/16 13:02:39;;;;;;;;;;;;;;;;;;4967488;28;19937;-72
2021/08/16 13:05:05;;;;;;;;;;;;;;;;;;4958453;28;20243;-71
2021/08/16 13:07:30;;;;;;;;;;;;;;;;;;4948782;28;20354;-70
2021/08/16 13:09:55;;;;;;;;;;;;;;;;;;4954213;28;19913;-73
2021/08/16 13:12:20;;;;;;;;;;;;;;;;;;4963161;28;19924;-72
2021/08/16 13:14:45;;;;;;;;;;;;;;;;;;4969194;28;20378;-70
2021/08/16 13:17:11;;;;;;;;;;;;;;;;;;4950189;28;19950;-71
2021/08/16 13:19:36;;;;;;;;;;;;;;;;;;4968056;28;19918;-70
2021/08/16 13:22:01;;;;;;;;;;;;;;;;;;4953691;28;19913;-70
2021/08/16 13:24:26;;;;;;;;;;;;;;;;;;4938362;28;19953;-72
2021/08/16 13:26:52;;;;;;;;;;;;;;;;;;4970925;28;19914;-73
2021/08/16 13:29:17;;;;;;;;;;;;;;;;;;4955253;28;20286;-73
2021/08/16 13:31:42;;;;;;;;;;;;;;;;;;4954571;28;20028;-73
2021/08/16 13:34:07;;;;;;;;;;;;;;;;;;4970014;28;20371;-74
2021/08/16 13:36:33;;;;;;;;;;;;;;;;;;4967077;28;20377;-71
2021/08/16 13:38:58;;;;;;;;;;;;;;;;;;4958177;28;20311;-71
2021/08/16 13:41:23;;;;;;;;;;;;;;;;;;4973608;28;20005;-72
2021/08/16 13:43:48;;;;;;;;;;;;;;;;;;4974158;28;19917;-72
2021/08/16 13:46:13;;;;;;;;;;;;;;;;;;4973368;28;19913;-72
2021/08/16 13:48:39;;;;;;;;;;;;;;;;;;4976072;28;19925;-72
2021/08/16 13:51:05;;;;;;;;;;;;;;;;;;4974891;28;19914;-71
2021/08/16 13:53:31;;;;;;;;;;;;;;;;;;4971723;28;19921;-70
2021/08/16 13:55:57;;;;;;;;;;;;;;;;;;4956193;28;19921;-72
2021/08/16 13:58:22;;;;;;;;;;;;;;;;;;4953739;28;20370;-71
2021/08/16 14:00:47;;;;;;;;;;;;;;;;;;4956944;28;20417;-71
2021/08/16 14:03:12;;;;;;;;;;;;;;;;;;4972199;28;19967;-73
2021/08/16 14:05:38;;;;;;;;;;;;;;;;;;4973419;28;19969;-72
2021/08/16 14:08:03;;;;;;;;;;;;;;;;;;4975937;28;20211;-72
2021/08/16 14:10:28;;;;;;;;;;;;;;;;;;4975271;28;19972;-73
2021/08/16 14:12:53;;;;;;;;;;;;;;;;;;4973076;28;20332;-72
2021/08/16 14:15:18;;;;;;;;;;;;;;;;;;4971976;28;19972;-72
2021/08/16 14:17:44;;;;;;;;;;;;;;;;;;4955597;28;19969;-73
2021/08/16 14:20:09;;;;;;;;;;;;;;;;;;4970845;28;20298;-72
2021/08/16 14:22:34;;;;;;;;;;;;;;;;;;4973095;28;20212;-74
2021/08/16 14:25:00;;;;;;;;;;;;;;;;;;4959211;28;20224;-73
2021/08/16 14:27:25;;;;;;;;;;;;;;;;;;4972598;28;20303;-72
2021/08/16 14:29:50;;;;;;;;;;;;;;;;;;4971146;28;19914;-74
2021/08/16 14:32:15;;;;;;;;;;;;;;;;;;4970409;28;19917;-74
2021/08/16 14:34:40;;;;;;;;;;;;;;;;;;4972304;28;19929;-74
2021/08/16 14:37:06;;;;;;;;;;;;;;;;;;4954274;28;20079;-75
2021/08/16 14:39:32;;;;;;;;;;;;;;;;;;4950574;28;19921;-74
2021/08/16 14:41:58;;;;;;;;;;;;;;;;;;4972012;28;20065;-74
2021/08/16 14:44:23;;;;;;;;;;;;;;;;;;4973355;28;20008;-74
2021/08/16 14:46:48;;;;;;;;;;;;;;;;;;4973327;28;20430;-75
2021/08/16 14:49:14;;;;;;;;;;;;;;;;;;4952920;28;19921;-74
2021/08/16 14:51:39;;;;;;;;;;;;;;;;;;4956698;28;19918;-74
2021/08/16 14:54:04;;;;;;;;;;;;;;;;;;4955383;28;19961;-73
2021/08/16 14:56:29;;;;;;;;;;;;;;;;;;4954739;28;19964;-73
2021/08/16 14:58:54;;;;;;;;;;;;;;;;;;4974067;28;19913;-73
2021/08/16 15:01:23;;;;;;;;;;;;;;;;;;4973994;28;20051;-74
2021/08/16 15:03:48;;;;;;;;;;;;;;;;;;4972285;28;20017;-73
2021/08/16 15:06:13;;;;;;;;;;;;;;;;;;4952774;28;19918;-73
2021/08/16 15:08:39;;;;;;;;;;;;;;;;;;4951773;28;20203;-73
2021/08/16 15:11:04;;;;;;;;;;;;;;;;;;4968004;28;19913;-73
2021/08/16 15:13:29;;;;;;;;;;;;;;;;;;4959250;28;19926;-74
2021/08/16 15:15:55;;;;;;;;;;;;;;;;;;4970109;28;20468;-74
2021/08/16 15:18:20;;;;;;;;;;;;;;;;;;4968355;28;19918;-74
2021/08/16 15:20:45;;;;;;;;;;;;;;;;;;4962196;28;19917;-75
2021/08/16 15:23:11;;;;;;;;;;;;;;;;;;4972334;28;19914;-76
2021/08/16 15:25:36;;;;;;;;;;;;;;;;;;4949012;28;20351;-73
2021/08/16 15:28:01;;;;;;;;;;;;;;;;;;4972076;28;19949;-74
2021/08/16 15:30:26;;;;;;;;;;;;;;;;;;4964476;28;20298;-74
2021/08/16 15:32:53;;;;;;;;;;;;;;;;;;4947013;28;20232;-75
2021/08/16 15:35:18;;;;;;;;;;;;;;;;;;4949248;28;19922;-74
2021/08/16 15:37:44;;;;;;;;;;;;;;;;;;4965899;28;19965;-77
2021/08/16 15:40:09;;;;;;;;;;;;;;;;;;4953201;28;19973;-76
2021/08/16 15:42:34;;;;;;;;;;;;;;;;;;4966784;28;19945;-75
2021/08/16 15:44:59;;;;;;;;;;;;;;;;;;4948139;28;19925;-77
2021/08/16 15:47:25;;;;;;;;;;;;;;;;;;4955769;28;19969;-76
2021/08/16 15:49:50;;;;;;;;;;;;;;;;;;4941073;28;19914;-73
2021/08/16 15:52:15;;;;;;;;;;;;;;;;;;4969779;28;20455;-72
2021/08/16 15:54:41;;;;;;;;;;;;;;;;;;4964040;28;20366;-72
2021/08/16 15:57:06;;;;;;;;;;;;;;;;;;4956896;28;19913;-73
2021/08/16 15:59:32;;;;;;;;;;;;;;;;;;4963960;28;19914;-70
2021/08/16 16:01:57;;;;;;;;;;;;;;;;;;4941270;28;20942;-71
2021/08/16 16:04:22;;;;;;;;;;;;;;;;;;4943844;28;19921;-73
2021/08/16 16:06:47;;;;;;;;;;;;;;;;;;4952229;28;20283;-71
2021/08/16 16:09:13;;;;;;;;;;;;;;;;;;4966799;28;19913;-70
2021/08/16 16:11:38;;;;;;;;;;;;;;;;;;4952923;28;19915;-72
2021/08/16 16:14:05;;;;;;;;;;;;;;;;;;4945399;28;19914;-70
2021/08/16 16:16:30;;;;;;;;;;;;;;;;;;4963686;28;19921;-71
2021/08/16 16:18:55;;;;;;;;;;;;;;;;;;4965777;28;19918;-71
2021/08/16 16:21:23;;;;;;;;;;;;;;;;;;4965186;28;20386;-72
2021/08/16 16:23:48;;;;;;;;;;;;;;;;;;4965498;28;19914;-72
2021/08/16 16:26:16;;;;;;;;;;;;;;;;;;4920256;28;19921;-74
2021/08/16 16:28:43;;;;;;;;;;;;;;;;;;4944282;28;20327;-74
2021/08/16 16:31:11;;;;;;;;;;;;;;;;;;4968226;28;20375;-73
2021/08/16 16:33:36;;;;;;;;;;;;;;;;;;4962964;28;19914;-73